createdAt,value
2019-02-11T00:01:32.981Z,6.72
2019-02-11T00:04:00.222Z,6.66
2019-02-11T00:06:27.423Z,6.72
2019-02-11T00:08:54.676Z,6.69
2019-02-11T00:11:21.882Z,6.65
2019-02-11T00:13:49.122Z,6.69
2019-02-11T00:16:16.385Z,6.72
2019-02-11T00:18:43.617Z,6.63
2019-02-11T00:21:10.813Z,6.73
2019-02-11T00:23:38.069Z,6.72
2019-02-11T00:26:05.276Z,6.74
2019-02-11T00:28:32.492Z,6.76
2019-02-11T00:30:59.726Z,6.71
2019-02-11T00:33:26.987Z,6.74
2019-02-11T00:35:54.195Z,6.71
2019-02-11T00:38:21.478Z,6.74
2019-02-11T00:40:48.723Z,6.68
2019-02-11T00:43:19.184Z,6.69
2019-02-11T00:45:45.197Z,6.71
2019-02-11T00:48:12.427Z,6.63
2019-02-11T00:50:39.625Z,6.70
2019-02-11T00:53:07.256Z,6.64
2019-02-11T00:55:34.575Z,6.70
2019-02-11T00:58:01.843Z,6.71
2019-02-11T01:00:29.148Z,6.76
2019-02-11T01:02:56.373Z,6.72
2019-02-11T01:05:23.644Z,6.77
2019-02-11T01:07:50.873Z,6.62
2019-02-11T01:10:18.080Z,6.61
2019-02-11T01:12:45.336Z,6.60
2019-02-11T01:15:12.752Z,6.70
2019-02-11T01:17:39.992Z,6.57
2019-02-11T01:20:09.267Z,6.65
2019-02-11T01:22:36.477Z,6.73
2019-02-11T01:25:04.300Z,6.70
2019-02-11T01:27:31.521Z,6.59
2019-02-11T01:29:58.735Z,6.49
2019-02-11T01:32:25.971Z,6.35
2019-02-11T01:34:53.227Z,6.28
2019-02-11T01:37:20.437Z,6.36
2019-02-11T01:39:47.691Z,6.45
2019-02-11T01:42:14.968Z,6.40
2019-02-11T01:44:42.198Z,6.32
2019-02-11T01:47:09.447Z,6.38
2019-02-11T01:49:36.689Z,6.39
2019-02-11T01:52:03.917Z,6.32
2019-02-11T01:54:31.109Z,6.38
2019-02-11T01:56:58.454Z,6.36
2019-02-11T01:59:25.669Z,6.34
2019-02-11T02:01:52.891Z,6.43
2019-02-11T02:04:20.129Z,6.39
2019-02-11T02:06:47.360Z,6.48
2019-02-11T02:09:14.700Z,6.47
2019-02-11T02:11:41.904Z,6.37
2019-02-11T02:14:09.159Z,6.44
2019-02-11T02:16:36.362Z,6.41
2019-02-11T02:19:03.679Z,6.37
2019-02-11T02:21:30.901Z,6.29
2019-02-11T02:23:58.117Z,6.39
2019-02-11T02:26:25.328Z,6.34
2019-02-11T02:28:52.600Z,6.32
2019-02-11T02:31:19.803Z,6.29
2019-02-11T02:33:47.014Z,6.21
2019-02-11T02:36:14.260Z,6.29
2019-02-11T02:38:41.504Z,6.25
2019-02-11T02:41:08.725Z,6.35
2019-02-11T02:43:35.954Z,6.32
2019-02-11T02:46:03.187Z,6.32
2019-02-11T02:48:30.402Z,6.28
2019-02-11T02:50:57.692Z,6.34
2019-02-11T02:53:24.908Z,6.36
2019-02-11T02:55:52.105Z,6.38
2019-02-11T02:58:19.348Z,6.29
2019-02-11T03:00:46.555Z,6.32
2019-02-11T03:03:13.800Z,6.36
2019-02-11T03:05:41.037Z,6.33
2019-02-11T03:08:08.243Z,6.32
2019-02-11T03:10:35.482Z,6.44
2019-02-11T03:13:02.696Z,6.41
2019-02-11T03:15:29.914Z,6.53
2019-02-11T03:17:57.181Z,6.62
2019-02-11T03:20:24.387Z,6.60
2019-02-11T03:22:51.615Z,6.63
2019-02-11T03:25:18.971Z,6.64
2019-02-11T03:27:46.177Z,6.60
2019-02-11T03:30:13.396Z,6.57
2019-02-11T03:32:40.883Z,6.60
2019-02-11T03:35:08.218Z,6.60
2019-02-11T03:37:35.484Z,6.61
2019-02-11T03:40:02.850Z,6.67
2019-02-11T03:42:30.066Z,6.66
2019-02-11T03:44:57.365Z,6.65
2019-02-11T03:47:24.568Z,6.68
2019-02-11T03:49:51.790Z,6.65
2019-02-11T03:52:19.029Z,6.62
2019-02-11T03:54:46.350Z,6.62
2019-02-11T03:57:13.600Z,6.75
2019-02-11T03:59:40.856Z,6.74
2019-02-11T04:02:08.087Z,6.71
2019-02-11T04:04:35.347Z,6.68
2019-02-11T04:07:02.579Z,6.75
2019-02-11T04:09:29.801Z,6.78
2019-02-11T04:11:57.074Z,6.72
2019-02-11T04:14:25.242Z,6.71
2019-02-11T04:16:52.648Z,6.71
2019-02-11T04:19:19.854Z,6.68
2019-02-11T04:21:56.248Z,6.69
2019-02-11T04:24:23.497Z,6.66
2019-02-11T04:26:50.727Z,6.76
2019-02-11T04:29:18.063Z,6.72
2019-02-11T04:31:45.275Z,6.74
2019-02-11T04:34:12.496Z,6.80
2019-02-11T04:36:39.751Z,6.82
2019-02-11T04:39:07.032Z,6.72
2019-02-11T04:41:34.266Z,6.72
2019-02-11T04:44:01.547Z,6.74
2019-02-11T04:46:28.764Z,6.79
2019-02-11T04:48:56.021Z,6.69
2019-02-11T04:51:23.227Z,6.64
2019-02-11T04:53:50.458Z,6.67
2019-02-11T04:56:17.703Z,6.70
2019-02-11T04:58:44.917Z,6.72
2019-02-11T05:01:12.177Z,6.61
2019-02-11T05:03:39.414Z,6.72
2019-02-11T05:06:06.636Z,6.67
2019-02-11T05:08:33.908Z,6.60
2019-02-11T05:11:01.121Z,6.63
2019-02-11T05:13:28.337Z,6.58
2019-02-11T05:15:55.606Z,6.55
2019-02-11T05:18:22.819Z,6.47
2019-02-11T05:20:50.062Z,6.34
2019-02-11T05:23:17.317Z,6.43
2019-02-11T05:25:44.517Z,6.46
2019-02-11T05:28:11.745Z,6.48
2019-02-11T05:30:38.990Z,6.48
2019-02-11T05:33:06.221Z,6.44
2019-02-11T05:35:33.440Z,6.39
2019-02-11T05:38:00.676Z,6.41
2019-02-11T05:40:27.946Z,6.26
2019-02-11T05:42:55.143Z,6.28
2019-02-11T05:45:22.418Z,6.39
2019-02-11T05:47:49.654Z,6.22
2019-02-11T05:50:16.872Z,6.28
2019-02-11T05:52:44.163Z,6.22
2019-02-11T05:55:11.411Z,6.26
2019-02-11T05:57:38.641Z,6.18
2019-02-11T06:00:08.027Z,6.18
2019-02-11T06:02:35.235Z,6.21
2019-02-11T06:05:02.483Z,6.34
2019-02-11T06:07:29.687Z,6.36
2019-02-11T06:09:56.930Z,6.23
2019-02-11T06:12:24.149Z,6.34
2019-02-11T06:14:51.376Z,6.25
2019-02-11T06:17:18.628Z,6.30
2019-02-11T06:19:45.840Z,6.37
2019-02-11T06:22:13.042Z,6.34
2019-02-11T06:24:40.286Z,6.40
2019-02-11T06:27:07.498Z,6.33
2019-02-11T06:29:34.756Z,6.37
2019-02-11T06:32:01.969Z,6.31
2019-02-11T06:34:29.175Z,6.39
2019-02-11T06:36:56.445Z,6.46
2019-02-11T06:39:23.698Z,6.41
2019-02-11T06:41:50.988Z,6.47
2019-02-11T06:44:18.241Z,6.50
2019-02-11T06:46:45.565Z,6.43
2019-02-11T06:49:12.749Z,6.36
2019-02-11T06:51:39.982Z,6.37
2019-02-11T06:54:07.242Z,6.44
2019-02-11T06:56:34.438Z,6.36
2019-02-11T06:59:01.645Z,6.44
2019-02-11T07:01:28.935Z,6.42
2019-02-11T07:03:56.179Z,6.54
2019-02-11T07:06:23.405Z,6.55
2019-02-11T07:08:50.616Z,6.45
2019-02-11T07:11:17.956Z,6.50
2019-02-11T07:13:45.176Z,6.52
2019-02-11T07:16:12.428Z,6.54
2019-02-11T07:18:39.633Z,6.46
2019-02-11T07:21:06.888Z,6.52
2019-02-11T07:23:34.153Z,6.42
2019-02-11T07:26:01.401Z,6.34
2019-02-11T07:28:28.669Z,6.30
2019-02-11T07:30:55.981Z,6.32
2019-02-11T07:33:23.201Z,6.26
2019-02-11T07:35:50.443Z,6.31
2019-02-11T07:38:17.705Z,6.33
2019-02-11T07:40:44.949Z,6.26
2019-02-11T07:43:31.859Z,6.25
2019-02-11T07:46:03.425Z,6.27
2019-02-11T07:48:30.625Z,6.18
2019-02-11T07:50:57.918Z,6.17
2019-02-11T07:53:25.116Z,6.27
2019-02-11T07:55:52.326Z,6.36
2019-02-11T07:58:19.627Z,6.37
2019-02-11T08:00:46.841Z,6.48
2019-02-11T08:03:14.062Z,6.46
2019-02-11T08:05:41.331Z,6.52
2019-02-11T08:08:08.549Z,6.50
2019-02-11T08:10:35.778Z,6.51
2019-02-11T08:13:03.021Z,6.39
2019-02-11T08:15:38.068Z,6.47
2019-02-11T08:17:59.365Z,6.53
2019-02-11T08:20:26.658Z,6.49
2019-02-11T08:22:53.888Z,6.49
2019-02-11T08:25:21.106Z,6.55
2019-02-11T08:27:48.380Z,6.55
2019-02-11T08:30:15.598Z,6.49
2019-02-11T08:32:42.809Z,6.48
2019-02-11T08:35:10.058Z,6.41
2019-02-11T08:37:37.275Z,6.33
2019-02-11T08:40:04.694Z,6.38
2019-02-11T08:42:31.949Z,6.37
2019-02-11T08:44:59.190Z,6.46
2019-02-11T08:47:26.430Z,6.33
2019-02-11T08:49:53.773Z,6.41
2019-02-11T08:52:20.977Z,6.60
2019-02-11T08:54:48.237Z,6.82
2019-02-11T08:57:15.460Z,6.83
2019-02-11T08:59:43.033Z,6.83
2019-02-11T09:02:10.385Z,6.74
2019-02-11T09:04:37.610Z,6.71
2019-02-11T09:07:04.952Z,6.79
2019-02-11T09:09:32.225Z,6.83
2019-02-11T09:11:59.459Z,6.99
2019-02-11T09:14:26.673Z,7.14
2019-02-11T09:16:53.926Z,7.22
2019-02-11T09:19:21.165Z,7.35
2019-02-11T09:21:48.379Z,7.41
2019-02-11T09:24:15.642Z,7.40
2019-02-11T09:26:42.877Z,7.41
2019-02-11T09:29:10.132Z,7.51
2019-02-11T09:31:37.359Z,7.40
2019-02-11T09:34:04.591Z,7.24
2019-02-11T09:36:31.977Z,7.33
2019-02-11T09:38:59.185Z,7.44
2019-02-11T09:41:26.449Z,7.45
2019-02-11T09:43:53.775Z,7.56
2019-02-11T09:46:21.212Z,7.58
2019-02-11T09:48:48.485Z,7.66
2019-02-11T09:51:15.767Z,7.56
2019-02-11T09:53:42.988Z,7.47
2019-02-11T09:56:10.374Z,7.40
2019-02-11T09:58:38.176Z,7.31
2019-02-11T10:01:05.506Z,7.32
2019-02-11T10:03:32.752Z,7.55
2019-02-11T10:05:59.970Z,7.57
2019-02-11T10:08:27.199Z,7.66
2019-02-11T10:10:54.482Z,7.58
2019-02-11T10:13:21.717Z,7.56
2019-02-11T10:15:48.931Z,7.56
2019-02-11T10:18:16.204Z,7.53
2019-02-11T10:20:43.417Z,7.62
2019-02-11T10:23:10.629Z,7.75
2019-02-11T10:25:37.870Z,7.76
2019-02-11T10:28:08.161Z,7.85
2019-02-11T10:30:35.392Z,7.72
2019-02-11T10:33:02.655Z,7.68
2019-02-11T10:35:29.878Z,7.54
2019-02-11T10:37:57.104Z,7.49
2019-02-11T10:40:24.443Z,7.49
2019-02-11T10:42:51.747Z,7.55
2019-02-11T10:45:19.112Z,7.46
2019-02-11T10:47:46.386Z,7.47
2019-02-11T10:50:14.736Z,7.57
2019-02-11T10:52:41.940Z,7.51
2019-02-11T10:55:10.993Z,7.56
2019-02-11T10:57:38.273Z,7.58
2019-02-11T11:00:07.755Z,7.56
2019-02-11T11:02:34.971Z,7.56
2019-02-11T11:05:02.249Z,7.54
2019-02-11T11:07:29.537Z,7.57
2019-02-11T11:09:56.790Z,7.58
2019-02-11T11:12:24.326Z,7.64
2019-02-11T11:14:51.627Z,7.57
2019-02-11T11:17:21.046Z,7.67
2019-02-11T11:19:48.271Z,7.85
2019-02-11T11:22:15.546Z,7.74
2019-02-11T11:24:42.764Z,7.77
2019-02-11T11:27:10.016Z,7.79
2019-02-11T11:29:37.284Z,7.83
2019-02-11T11:32:04.617Z,8.00
2019-02-11T11:34:31.828Z,7.86
2019-02-11T11:36:59.099Z,7.83
2019-02-11T11:39:26.491Z,7.87
2019-02-11T11:41:53.736Z,7.87
2019-02-11T11:44:20.977Z,7.84
2019-02-11T11:46:48.313Z,7.70
2019-02-11T11:49:15.540Z,7.78
2019-02-11T11:51:42.965Z,7.85
2019-02-11T11:54:10.226Z,7.86
2019-02-11T11:56:37.507Z,7.88
2019-02-11T11:59:04.744Z,7.90
2019-02-11T12:01:32.090Z,7.97
2019-02-11T12:03:59.364Z,7.92
2019-02-11T12:06:26.745Z,8.03
2019-02-11T12:08:54.009Z,7.96
2019-02-11T12:11:21.346Z,7.98
2019-02-11T12:13:48.752Z,8.05
2019-02-11T12:16:16.011Z,8.21
2019-02-11T12:18:43.310Z,8.19
2019-02-11T12:21:10.554Z,8.14
2019-02-11T12:23:37.763Z,8.01
2019-02-11T12:26:05.132Z,7.87
2019-02-11T12:28:32.438Z,7.71
2019-02-11T12:30:59.760Z,7.61
2019-02-11T12:33:26.973Z,7.57
2019-02-11T12:35:54.239Z,7.58
2019-02-11T12:38:21.526Z,7.69
2019-02-11T12:40:48.780Z,7.62
2019-02-11T12:43:16.039Z,7.66
2019-02-11T12:45:43.418Z,7.82
2019-02-11T12:48:10.804Z,7.82
2019-02-11T12:50:38.130Z,7.91
2019-02-11T12:53:05.417Z,7.92
2019-02-11T12:55:32.702Z,8.13
2019-02-11T12:57:59.918Z,8.17
2019-02-11T13:00:27.203Z,8.08
2019-02-11T13:02:54.435Z,8.02
2019-02-11T13:05:26.713Z,7.92
2019-02-11T13:07:50.960Z,8.06
2019-02-11T13:10:19.574Z,7.96
2019-02-11T13:12:46.966Z,8.00
2019-02-11T13:15:33.942Z,8.12
2019-02-11T13:17:43.884Z,8.11
2019-02-11T13:20:12.310Z,8.08
2019-02-11T13:22:39.710Z,7.99
2019-02-11T13:25:09.427Z,7.99
2019-02-11T13:27:36.820Z,7.94
2019-02-11T13:30:05.380Z,8.11
2019-02-11T13:32:32.657Z,8.13
2019-02-11T13:34:59.899Z,7.90
2019-02-11T13:37:27.150Z,7.94
2019-02-11T13:39:54.414Z,7.92
2019-02-11T13:42:22.669Z,7.95
2019-02-11T13:44:50.021Z,8.02
2019-02-11T13:47:17.361Z,7.94
2019-02-11T13:49:46.506Z,8.00
2019-02-11T13:52:13.800Z,7.95
2019-02-11T13:54:41.354Z,7.86
2019-02-11T13:57:08.579Z,7.88
2019-02-11T13:59:35.878Z,7.88
2019-02-11T14:02:03.231Z,7.93
2019-02-11T14:04:30.459Z,7.89
2019-02-11T14:06:57.828Z,7.95
2019-02-11T14:09:25.053Z,7.93
2019-02-11T14:11:52.318Z,7.90
2019-02-11T14:14:27.110Z,7.77
2019-02-11T14:16:55.080Z,7.82
2019-02-11T14:19:22.330Z,7.64
2019-02-11T14:21:49.591Z,7.80
2019-02-11T14:24:16.843Z,7.68
2019-02-11T14:26:44.077Z,7.65
2019-02-11T14:29:11.391Z,7.75
2019-02-11T14:31:38.622Z,7.76
2019-02-11T14:34:10.048Z,7.70
2019-02-11T14:36:35.049Z,7.63
2019-02-11T14:39:04.203Z,7.75
2019-02-11T14:41:31.491Z,7.80
2019-02-11T14:43:58.704Z,7.84
2019-02-11T14:46:25.971Z,7.62
2019-02-11T14:48:53.346Z,7.48
2019-02-11T14:51:20.613Z,7.30
2019-02-11T14:53:47.905Z,7.28
2019-02-11T14:56:15.218Z,7.36
2019-02-11T14:58:42.453Z,7.33
2019-02-11T15:01:09.665Z,7.34
2019-02-11T15:03:36.935Z,7.35
2019-02-11T15:06:04.173Z,7.19
2019-02-11T15:08:31.407Z,7.23
2019-02-11T15:10:58.715Z,7.26
2019-02-11T15:13:25.930Z,7.36
2019-02-11T15:15:53.156Z,7.30
2019-02-11T15:18:20.413Z,7.28
2019-02-11T15:20:47.617Z,7.45
2019-02-11T15:23:14.826Z,7.37
2019-02-11T15:25:42.071Z,7.46
2019-02-11T15:28:09.304Z,7.31
2019-02-11T15:30:36.680Z,7.29
2019-02-11T15:33:03.893Z,7.35
2019-02-11T15:35:31.144Z,7.37
2019-02-11T15:37:58.428Z,7.32
2019-02-11T15:40:25.673Z,7.27
2019-02-11T15:42:52.900Z,7.39
2019-02-11T15:45:20.170Z,7.32
2019-02-11T15:47:47.477Z,7.39
2019-02-11T15:50:15.312Z,7.23
2019-02-11T15:52:42.630Z,7.11
2019-02-11T15:55:11.933Z,7.07
2019-02-11T15:57:39.174Z,7.04
2019-02-11T16:00:08.116Z,6.89
2019-02-11T16:02:35.322Z,6.67
2019-02-11T16:05:02.991Z,6.85
2019-02-11T16:07:30.289Z,6.90
2019-02-11T16:09:57.534Z,6.83
2019-02-11T16:12:24.758Z,6.84
2019-02-11T16:14:52.008Z,6.78
2019-02-11T16:17:21.875Z,6.84
2019-02-11T16:19:49.102Z,6.79
2019-02-11T16:22:16.370Z,6.84
2019-02-11T16:24:43.581Z,6.76
2019-02-11T16:27:10.802Z,6.92
2019-02-11T16:29:38.063Z,6.94
2019-02-11T16:32:05.281Z,6.92
2019-02-11T16:34:32.520Z,6.88
2019-02-11T16:36:59.784Z,6.89
2019-02-11T16:39:27.050Z,6.94
2019-02-11T16:41:54.297Z,6.91
2019-02-11T16:44:21.554Z,6.97
2019-02-11T16:46:48.796Z,6.97
2019-02-11T16:49:16.105Z,6.91
2019-02-11T16:51:43.432Z,6.84
2019-02-11T16:54:10.666Z,6.81
2019-02-11T16:56:37.914Z,6.70
2019-02-11T16:59:05.161Z,6.74
2019-02-11T17:01:32.395Z,6.59
2019-02-11T17:03:59.667Z,6.55
2019-02-11T17:06:26.948Z,6.71
2019-02-11T17:08:54.169Z,6.68
2019-02-11T17:11:21.401Z,6.72
2019-02-11T17:13:48.675Z,6.74
2019-02-11T17:16:15.881Z,6.62
2019-02-11T17:18:43.100Z,6.55
2019-02-11T17:21:10.370Z,6.66
2019-02-11T17:23:37.611Z,6.57
2019-02-11T17:26:04.830Z,6.59
2019-02-11T17:28:32.082Z,6.63
2019-02-11T17:30:59.476Z,6.72
2019-02-11T17:33:26.706Z,6.64
2019-02-11T17:35:53.998Z,6.58
2019-02-11T17:38:21.201Z,6.59
2019-02-11T17:40:48.460Z,6.62
2019-02-11T17:43:15.670Z,6.74
2019-02-11T17:45:43.019Z,6.73
2019-02-11T17:48:10.279Z,6.64
2019-02-11T17:50:37.576Z,6.71
2019-02-11T17:53:05.502Z,6.64
2019-02-11T17:55:32.782Z,6.76
2019-02-11T17:58:00.004Z,6.77
2019-02-11T18:00:31.271Z,6.86
2019-02-11T18:02:58.550Z,6.79
2019-02-11T18:05:25.769Z,6.93
2019-02-11T18:07:52.977Z,7.03
2019-02-11T18:10:20.241Z,7.04
2019-02-11T18:12:47.465Z,6.50
2019-02-11T18:15:14.737Z,6.40
2019-02-11T18:17:41.970Z,6.48
2019-02-11T18:20:09.324Z,6.34
2019-02-11T18:22:36.544Z,6.34
2019-02-11T18:25:04.117Z,6.35
2019-02-11T18:27:31.373Z,6.37
2019-02-11T18:29:58.593Z,6.28
2019-02-11T18:32:25.793Z,6.19
2019-02-11T18:34:53.045Z,6.21
2019-02-11T18:37:20.279Z,6.15
2019-02-11T18:39:47.511Z,6.15
2019-02-11T18:42:14.772Z,6.25
2019-02-11T18:44:42.014Z,6.31
2019-02-11T18:47:09.258Z,6.25
2019-02-11T18:49:36.549Z,6.15
2019-02-11T18:52:03.939Z,6.28
2019-02-11T18:54:31.189Z,6.40
2019-02-11T18:56:58.404Z,6.37
2019-02-11T18:59:25.658Z,6.54
2019-02-11T19:01:52.882Z,6.56
2019-02-11T19:04:20.122Z,6.50
2019-02-11T19:06:47.413Z,6.44
2019-02-11T19:09:16.080Z,6.34
2019-02-11T19:11:43.297Z,6.34
2019-02-11T19:14:10.588Z,6.25
2019-02-11T19:16:37.842Z,6.19
2019-02-11T19:19:05.053Z,6.32
2019-02-11T19:21:32.339Z,6.33
2019-02-11T19:23:59.590Z,6.32
2019-02-11T19:26:26.793Z,6.20
2019-02-11T19:28:54.010Z,6.17
2019-02-11T19:31:21.279Z,6.29
2019-02-11T19:33:48.493Z,6.26
2019-02-11T19:36:15.707Z,6.33
2019-02-11T19:38:42.965Z,6.43
2019-02-11T19:41:10.337Z,6.47
2019-02-11T19:43:37.899Z,6.44
2019-02-11T19:46:05.557Z,6.45
2019-02-11T19:48:33.242Z,6.42
2019-02-11T19:51:00.856Z,6.44
2019-02-11T19:53:28.607Z,6.29
2019-02-11T19:55:56.342Z,6.24
2019-02-11T19:58:23.919Z,6.23
2019-02-11T20:00:51.452Z,6.18
2019-02-11T20:03:19.018Z,6.24
2019-02-11T20:05:46.559Z,6.38
2019-02-11T20:08:14.102Z,6.29
2019-02-11T20:10:41.825Z,6.34
2019-02-11T20:13:09.370Z,6.29
2019-02-11T20:15:37.019Z,6.24
2019-02-11T20:18:04.748Z,6.20
2019-02-11T20:20:32.385Z,6.31
2019-02-11T20:22:59.921Z,6.27
2019-02-11T20:25:27.600Z,6.25
2019-02-11T20:27:55.254Z,6.14
2019-02-11T20:30:24.148Z,6.09
2019-02-11T20:32:51.823Z,5.99
2019-02-11T20:35:19.576Z,6.06
2019-02-11T20:37:47.113Z,6.09
2019-02-11T20:40:16.579Z,6.26
2019-02-11T20:42:44.131Z,6.30
2019-02-11T20:45:14.730Z,6.32
2019-02-11T20:47:42.326Z,6.32
2019-02-11T20:50:12.117Z,5.99
2019-02-11T20:52:39.552Z,5.91
2019-02-11T20:55:08.740Z,5.91
2019-02-11T20:57:36.302Z,6.10
2019-02-11T21:00:04.789Z,6.14
2019-02-11T21:02:32.366Z,6.22
2019-02-11T21:04:59.904Z,6.24
2019-02-11T21:07:27.442Z,6.22
2019-02-11T21:09:55.072Z,6.14
2019-02-11T21:12:22.724Z,6.17
2019-02-11T21:14:50.255Z,6.21
2019-02-11T21:17:17.978Z,6.23
2019-02-11T21:19:45.523Z,6.25
2019-02-11T21:22:13.147Z,6.28
2019-02-11T21:24:40.707Z,6.27
2019-02-11T21:27:08.256Z,6.26
2019-02-11T21:29:35.825Z,6.20
2019-02-11T21:32:06.449Z,6.26
2019-02-11T21:34:33.987Z,6.19
2019-02-11T21:37:01.603Z,6.18
2019-02-11T21:39:29.137Z,6.25
2019-02-11T21:41:56.682Z,6.27
2019-02-11T21:44:24.313Z,6.25
2019-02-11T21:46:51.554Z,6.26
2019-02-11T21:49:19.292Z,6.29
2019-02-11T21:51:46.553Z,6.30
2019-02-11T21:54:13.762Z,6.08
2019-02-11T21:56:41.037Z,5.95
2019-02-11T21:59:08.284Z,5.92
2019-02-11T22:01:35.493Z,5.98
2019-02-11T22:04:02.716Z,5.97
2019-02-11T22:06:30.000Z,5.99
2019-02-11T22:08:57.210Z,6.10
2019-02-11T22:11:24.426Z,5.95
2019-02-11T22:13:51.677Z,6.01
2019-02-11T22:16:18.919Z,5.98
2019-02-11T22:18:46.150Z,5.95
2019-02-11T22:21:13.420Z,5.82
2019-02-11T22:23:40.627Z,5.87
2019-02-11T22:26:07.836Z,5.82
2019-02-11T22:28:35.085Z,5.93
2019-02-11T22:31:02.307Z,5.96
2019-02-11T22:33:29.529Z,5.96
2019-02-11T22:35:56.813Z,5.99
2019-02-11T22:38:24.024Z,5.94
2019-02-11T22:40:51.235Z,5.92
2019-02-11T22:43:18.534Z,5.78
2019-02-11T22:45:45.752Z,5.85
2019-02-11T22:48:12.979Z,5.73
2019-02-11T22:50:43.215Z,5.67
2019-02-11T22:53:09.386Z,5.54
2019-02-11T22:55:36.658Z,5.59
2019-02-11T22:58:03.914Z,5.61
2019-02-11T23:00:48.603Z,5.69
2019-02-11T23:03:16.314Z,5.46
2019-02-11T23:05:43.638Z,5.52
2019-02-11T23:08:11.147Z,5.58
2019-02-11T23:10:38.393Z,5.53
2019-02-11T23:13:05.592Z,5.57
2019-02-11T23:15:32.810Z,5.60
2019-02-11T23:18:00.089Z,5.59
2019-02-11T23:20:27.655Z,5.70
2019-02-11T23:22:54.862Z,5.70
2019-02-11T23:25:22.173Z,5.77
2019-02-11T23:27:49.392Z,5.72
2019-02-11T23:30:16.594Z,5.78
2019-02-11T23:32:43.853Z,5.73
2019-02-11T23:35:11.070Z,5.56
2019-02-11T23:37:38.280Z,5.65
2019-02-11T23:40:05.676Z,5.70
2019-02-11T23:42:32.928Z,5.73
2019-02-11T23:45:00.280Z,5.71
2019-02-11T23:47:27.544Z,5.72
2019-02-11T23:49:54.845Z,5.73
2019-02-11T23:52:22.078Z,5.60
2019-02-11T23:54:49.360Z,5.64
2019-02-11T23:57:16.567Z,5.65
2019-02-11T23:59:43.780Z,5.56
